Aérodrome :
LOGIN :

S'inscrire | Disclaimer

   EN    FR    IT 

 










Légende :    VFR   VFR Marginal   IFR   IFR Intensif   IFR Très Intensif
Visi : 
Plafond : 
>= 8 km
>= 3000ft
5 à 8 km
1000 à 3000 ft
1500m à 5 km
500 à 1000 ft
800 à 1500m
200 à 500 ft
< 800m
< 200 ft
Symboles :   Orages  Brouillard  Fortes neiges  Fortes précipitations  Vent > 20 kt
SIGMETs :   Divers  Orages  Givrage  Turbulence  Onde Orograph.  Cendres Volcan.







- Altitude de l'aérodrome : 137 ft


LIPS - Istrana AFB Treviso

DERNIER METAR :
  • 201055Z 09008KT 9999 SCT030 25/13 Q1016 RMK SCT VIS MIN 9999 WIND THR26 11008KT WIND THR08 08009KT BLU

METARs EXPIRÉS :
  • 200955Z 09012KT 9999 FEW030 25/12 Q1016 RMK SCT SCT200 VIS MIN 9999 WIND THR26 08010KT WIND THR08 08012KT BLU
  • 200855Z 08010KT 9999 FEW030 24/13 Q1016 RMK BKN BKN200 VIS MIN 9999 WIND THR26 07011KT WIND THR08 08010KT BLU

TAF TAF LIPS
Valide du 20 à 12h jusqu'au 20 à 21h UTC


201100Z 2012/2021 06010KT 9999 SCT030
PROB40
TEMPO 2012/2018 5000 SHRA FEW020CB SCT030
Pas de NOTAMs connus pour ce terrain.



MET'MAP, la Météo Aéronautique d'un coup d'oeil ! - Copyright ORBIFLY Décembre 2007 - Disclaimer

ORBIFLY MET'MAP TEAM :

Programmation & Développement : Alexandra Zaïnal
Conception & Développement : Baudouin d'Aumeries
Co-Programmation & Développement : Marc-Olivier Méhu
Soutien technique & logistique : Manuel Goepfert

Contact : metmap@orbifly.com




SOURCES & CREDITS :

   NOAA